Time;durP1;ratioP1;P1;durP2;ratioP2;P2;SDS_P1;SDS_P2;PMS_P1;PMS_P2;Temp;Humidity;BMP_temperature;BMP_pressure;BME280_temperature;BME280_humidity;BME280_pressure;Samples;Min_cycle;Max_cycle;Signal;HPM_P1;HPM_P2
2021/03/30 00:00:16;;;;;;;10.23;4.50;;;6.90;27.30;;;;;;5013554;28;20034;-82
2021/03/30 00:02:41;;;;;;;12.27;5.32;;;6.80;27.40;;;;;;5013549;28;20093;-82
2021/03/30 00:05:08;;;;;;;11.48;4.55;;;6.80;27.40;;;;;;5009936;28;20118;-82
2021/03/30 00:07:34;;;;;;;12.27;5.35;;;6.80;27.50;;;;;;5013551;28;20528;-82
2021/03/30 00:10:00;;;;;;;10.98;5.22;;;7.00;27.60;;;;;;5013214;28;20026;-82
2021/03/30 00:12:25;;;;;;;12.82;5.13;;;6.70;27.60;;;;;;5013459;28;20037;-82
2021/03/30 00:14:51;;;;;;;11.85;4.63;;;6.70;27.60;;;;;;5013395;28;20032;-82
2021/03/30 00:17:17;;;;;;;13.48;5.25;;;6.80;27.70;;;;;;5013457;28;20030;-82
2021/03/30 00:19:43;;;;;;;12.60;5.25;;;6.70;27.70;;;;;;5013361;28;20041;-82
2021/03/30 00:22:08;;;;;;;12.85;5.05;;;6.60;27.80;;;;;;5009938;28;20026;-81
2021/03/30 00:24:34;;;;;;;10.80;4.97;;;6.60;27.80;;;;;;5013239;28;20045;-82
2021/03/30 00:26:59;;;;;;;9.77;4.78;;;6.60;27.80;;;;;;5008849;28;20030;-82
2021/03/30 00:29:25;;;;;;;11.13;5.28;;;6.60;27.80;;;;;;5013112;28;20081;-82
2021/03/30 00:31:51;;;;;;;13.77;5.32;;;6.50;27.80;;;;;;5013411;28;20030;-81
2021/03/30 00:34:16;;;;;;;13.40;5.60;;;6.50;27.90;;;;;;5013285;28;20371;-82
2021/03/30 00:36:42;;;;;;;11.38;5.10;;;6.50;28.00;;;;;;5018662;28;20022;-82
2021/03/30 00:39:08;;;;;;;13.77;5.60;;;6.60;28.10;;;;;;5017831;28;20439;-82
2021/03/30 00:41:43;;;;;;;10.98;5.10;;;6.40;28.00;;;;;;5014215;28;20033;-82
2021/03/30 00:44:12;;;;;;;11.90;4.35;;;6.30;28.20;;;;;;5016894;28;20390;-82
2021/03/30 00:46:39;;;;;;;11.85;4.18;;;6.40;28.20;;;;;;5005672;28;20029;-82
2021/03/30 00:49:05;;;;;;;10.75;4.55;;;6.40;28.20;;;;;;4997158;28;20045;-81
2021/03/30 00:51:31;;;;;;;12.85;4.32;;;6.20;28.10;;;;;;4979745;28;20030;-82
2021/03/30 00:53:58;;;;;;;11.85;4.53;;;6.20;28.20;;;;;;4997153;28;20066;-81
2021/03/30 00:56:25;;;;;;;11.80;4.57;;;6.20;28.30;;;;;;4997147;28;20479;-81
2021/03/30 00:58:53;;;;;;;11.32;4.45;;;6.20;28.30;;;;;;4996849;28;20565;-81
2021/03/30 01:01:19;;;;;;;10.20;4.30;;;6.00;28.30;;;;;;4996879;28;20082;-81
2021/03/30 01:03:45;;;;;;;11.77;4.50;;;6.10;28.30;;;;;;4997032;28;20034;-81
2021/03/30 01:06:10;;;;;;;11.68;4.60;;;6.00;28.40;;;;;;4996869;28;20455;-81
2021/03/30 01:08:54;;;;;;;13.43;5.00;;;5.90;28.40;;;;;;4996910;28;20030;-81
2021/03/30 01:11:32;;;;;;;9.75;4.50;;;5.90;28.60;;;;;;4996677;28;20037;-81
2021/03/30 01:14:28;;;;;;;10.98;5.20;;;5.80;29.00;;;;;;4979225;28;20034;-81
2021/03/30 01:17:11;;;;;;;11.52;4.90;;;5.80;28.70;;;;;;4996767;28;20054;-81
2021/03/30 01:20:12;;;;;;;16.95;4.97;;;5.80;28.70;;;;;;4996528;28;20034;-81
2021/03/30 01:22:38;;;;;;;11.60;4.93;;;5.70;28.80;;;;;;4996614;28;20026;-81
2021/03/30 01:25:04;;;;;;;13.02;4.57;;;5.70;28.60;;;;;;4979060;28;20029;-82
2021/03/30 01:27:45;;;;;;;11.23;4.70;;;5.60;28.60;;;;;;4996348;28;20149;-82
2021/03/30 01:30:13;;;;;;;10.65;4.63;;;5.70;28.90;;;;;;4996267;28;20038;-82
2021/03/30 01:32:48;;;;;;;11.52;5.13;;;5.50;28.70;;;;;;4996694;28;20046;-81
2021/03/30 01:35:23;;;;;;;10.02;4.75;;;5.60;28.90;;;;;;4996321;28;20053;-81
2021/03/30 01:37:50;;;;;;;9.73;4.63;;;5.40;28.80;;;;;;4996251;28;20378;-81
2021/03/30 01:40:21;;;;;;;10.43;4.30;;;5.40;28.80;;;;;;4996178;28;20027;-81
2021/03/30 01:42:48;;;;;;;11.63;5.13;;;5.30;28.80;;;;;;4996173;28;20030;-82
2021/03/30 01:45:16;;;;;;;9.65;4.38;;;5.30;29.00;;;;;;4978904;28;20026;-82
2021/03/30 01:47:42;;;;;;;10.18;4.38;;;5.30;29.00;;;;;;4990454;28;20026;-82
2021/03/30 01:50:10;;;;;;;10.10;4.93;;;5.20;29.00;;;;;;4992969;28;20037;-82
2021/03/30 01:52:36;;;;;;;10.80;4.60;;;5.20;29.00;;;;;;4995521;28;20034;-82
2021/03/30 01:55:07;;;;;;;8.60;4.20;;;5.10;29.00;;;;;;4996019;28;20026;-82
2021/03/30 01:57:34;;;;;;;10.90;4.85;;;5.10;29.10;;;;;;4995859;28;20050;-82
2021/03/30 02:00:01;;;;;;;10.52;4.68;;;5.00;29.10;;;;;;4995899;28;20027;-81
2021/03/30 02:02:27;;;;;;;14.82;5.55;;;5.00;29.10;;;;;;4995631;28;20022;-80
2021/03/30 02:05:05;;;;;;;10.90;4.80;;;5.00;29.20;;;;;;4995797;28;20023;-84
2021/03/30 02:07:32;;;;;;;8.95;4.13;;;4.90;29.20;;;;;;4980116;28;20022;-83
2021/03/30 02:10:01;;;;;;;11.52;5.30;;;5.10;29.30;;;;;;5010788;28;20038;-83
2021/03/30 02:12:35;;;;;;;11.68;5.07;;;4.90;29.30;;;;;;4987796;28;20034;-83
2021/03/30 02:15:01;;;;;;;11.88;4.65;;;4.90;29.40;;;;;;4995410;28;20026;-83
2021/03/30 02:17:39;;;;;;;9.30;4.53;;;5.10;29.50;;;;;;4986548;28;20073;-83
2021/03/30 02:20:07;;;;;;;9.82;4.40;;;4.80;29.50;;;;;;4995767;28;20027;-83
2021/03/30 02:22:55;;;;;;;10.90;4.75;;;4.70;29.40;;;;;;4995402;28;20026;-83
2021/03/30 02:25:22;;;;;;;11.05;4.97;;;4.80;29.80;;;;;;4995307;28;20022;-83
2021/03/30 02:27:53;;;;;;;10.52;4.75;;;4.70;29.60;;;;;;4994945;28;20030;-83
2021/03/30 02:30:20;;;;;;;11.95;5.22;;;5.00;29.80;;;;;;4995331;28;20019;-83
2021/03/30 02:32:49;;;;;;;9.52;4.32;;;4.60;29.60;;;;;;4995444;28;20029;-83
2021/03/30 02:35:18;;;;;;;11.32;4.60;;;4.90;29.80;;;;;;4992719;28;20037;-84
2021/03/30 02:37:45;;;;;;;11.48;4.38;;;5.00;29.90;;;;;;4995092;28;20023;-83
2021/03/30 02:40:14;;;;;;;10.15;4.70;;;4.40;30.10;;;;;;4994864;28;20203;-84
2021/03/30 02:42:44;;;;;;;11.02;4.85;;;4.50;29.80;;;;;;4995080;28;20089;-83
2021/03/30 02:45:10;;;;;;;10.07;4.70;;;4.90;30.00;;;;;;4994948;28;20023;-84
2021/03/30 02:47:38;;;;;;;10.52;5.15;;;4.50;29.90;;;;;;5006397;28;20482;-83
2021/03/30 02:50:06;;;;;;;10.88;5.30;;;4.40;29.90;;;;;;5014446;28;20101;-83
2021/03/30 02:52:34;;;;;;;13.70;5.20;;;4.40;29.90;;;;;;5014194;28;20042;-83
2021/03/30 02:55:02;;;;;;;10.73;5.30;;;4.40;30.00;;;;;;5010313;28;20018;-83
2021/03/30 02:57:28;;;;;;;11.05;4.20;;;4.30;30.00;;;;;;5014414;28;20104;-83
2021/03/30 02:59:55;;;;;;;12.48;5.30;;;4.30;30.00;;;;;;5009239;28;20033;-83
2021/03/30 03:02:25;;;;;;;9.43;4.28;;;4.30;30.00;;;;;;4997386;28;20029;-83
2021/03/30 03:04:51;;;;;;;10.25;5.20;;;4.30;30.00;;;;;;4992236;28;20486;-82
2021/03/30 03:07:18;;;;;;;12.75;5.35;;;4.20;30.00;;;;;;5014118;28;20061;-81
2021/03/30 03:09:45;;;;;;;11.60;5.68;;;4.20;30.10;;;;;;5014255;28;20084;-82
2021/03/30 03:12:12;;;;;;;12.50;5.47;;;4.20;30.20;;;;;;5014143;28;20113;-82
2021/03/30 03:14:42;;;;;;;11.38;5.57;;;4.20;30.30;;;;;;5014290;28;20398;-82
2021/03/30 03:17:08;;;;;;;12.45;6.05;;;4.10;30.30;;;;;;5020123;28;20025;-82
2021/03/30 03:19:36;;;;;;;14.23;6.00;;;4.10;30.30;;;;;;5018179;28;20026;-82
2021/03/30 03:22:06;;;;;;;12.25;6.07;;;4.10;30.40;;;;;;5006271;28;20581;-82
2021/03/30 03:24:32;;;;;;;11.40;5.80;;;4.00;30.30;;;;;;5008032;28;20029;-82
2021/03/30 03:26:58;;;;;;;12.15;6.03;;;4.00;30.40;;;;;;5014051;28;20026;-82
2021/03/30 03:29:23;;;;;;;12.57;5.10;;;4.00;30.50;;;;;;5013770;28;20057;-82
2021/03/30 03:31:50;;;;;;;14.13;6.20;;;4.00;30.60;;;;;;5013921;28;20026;-82
2021/03/30 03:34:17;;;;;;;12.50;5.90;;;3.90;30.60;;;;;;5013737;28;20044;-82
2021/03/30 03:36:47;;;;;;;12.10;5.32;;;4.40;30.80;;;;;;5013926;28;20061;-82
2021/03/30 03:39:15;;;;;;;13.45;6.22;;;3.90;30.60;;;;;;5013907;28;20407;-81
2021/03/30 03:41:42;;;;;;;12.93;5.63;;;3.90;30.80;;;;;;5013734;28;20026;-82
2021/03/30 03:44:09;;;;;;;12.90;5.60;;;3.90;30.80;;;;;;5010147;28;20022;-82
2021/03/30 03:46:35;;;;;;;10.15;4.78;;;3.90;30.80;;;;;;5013629;28;20030;-82
2021/03/30 03:49:05;;;;;;;9.77;4.72;;;3.80;30.80;;;;;;5013636;28;20375;-82
2021/03/30 03:51:38;;;;;;;9.90;4.97;;;3.80;30.90;;;;;;5013723;28;20047;-81
2021/03/30 03:54:07;;;;;;;11.38;5.03;;;3.80;31.00;;;;;;5013426;28;20034;-82
2021/03/30 03:56:38;;;;;;;12.65;5.13;;;3.80;31.00;;;;;;5005486;28;20052;-81
2021/03/30 03:59:11;;;;;;;10.35;4.68;;;3.80;31.00;;;;;;5013539;28;20378;-81
2021/03/30 04:01:57;;;;;;;9.18;4.28;;;3.70;31.10;;;;;;5013656;28;20041;-81
2021/03/30 04:04:38;;;;;;;11.55;4.80;;;3.70;31.30;;;;;;4973276;28;20512;-81
2021/03/30 04:07:06;;;;;;;12.95;4.75;;;3.70;31.30;;;;;;5013357;28;20022;-81
2021/03/30 04:09:33;;;;;;;12.02;5.65;;;3.70;31.20;;;;;;5013474;28;20364;-81
2021/03/30 04:12:00;;;;;;;11.80;5.60;;;3.60;31.10;;;;;;5008907;28;20113;-81
2021/03/30 04:14:26;;;;;;;11.63;5.07;;;3.60;31.20;;;;;;5013274;28;20034;-81
2021/03/30 04:16:52;;;;;;;11.80;4.95;;;3.60;31.30;;;;;;5014738;28;20104;-82
2021/03/30 04:19:18;;;;;;;14.70;5.38;;;3.60;31.30;;;;;;5017563;28;20049;-81
2021/03/30 04:21:44;;;;;;;12.88;5.10;;;4.00;31.60;;;;;;5017330;28;20109;-81
2021/03/30 04:24:10;;;;;;;13.73;5.32;;;3.50;31.40;;;;;;4997771;28;20053;-87
2021/03/30 04:26:37;;;;;;;11.77;5.43;;;3.50;31.50;;;;;;5009484;28;20059;-81
2021/03/30 04:29:04;;;;;;;11.60;5.35;;;3.50;31.50;;;;;;5016782;28;20042;-81
2021/03/30 04:31:30;;;;;;;11.23;5.57;;;3.50;31.60;;;;;;5017332;28;20597;-81
2021/03/30 04:33:55;;;;;;;11.98;5.93;;;3.50;31.60;;;;;;5017310;28;20124;-80
2021/03/30 04:36:21;;;;;;;13.23;5.88;;;3.40;31.60;;;;;;5017369;28;20030;-80
2021/03/30 04:38:47;;;;;;;12.93;5.43;;;3.40;31.60;;;;;;5017000;28;20034;-80
2021/03/30 04:41:13;;;;;;;14.35;5.55;;;3.40;31.70;;;;;;5016972;28;20032;-80
2021/03/30 04:43:40;;;;;;;12.70;5.47;;;3.30;31.80;;;;;;5017014;28;20024;-80
2021/03/30 04:46:09;;;;;;;14.02;6.57;;;3.30;31.80;;;;;;5010252;28;20058;-81
2021/03/30 04:48:35;;;;;;;13.95;5.80;;;3.30;31.90;;;;;;4997427;28;20085;-81
2021/03/30 04:51:02;;;;;;;14.25;6.10;;;3.60;32.00;;;;;;4997287;28;20030;-80
2021/03/30 04:53:28;;;;;;;13.55;6.32;;;3.30;32.00;;;;;;4997217;28;20513;-80
2021/03/30 04:55:54;;;;;;;12.00;6.22;;;3.30;32.00;;;;;;4997576;28;20034;-80
2021/03/30 04:58:20;;;;;;;11.52;5.85;;;3.30;32.10;;;;;;4997275;28;20486;-79
2021/03/30 05:00:46;;;;;;;13.25;5.50;;;3.20;32.00;;;;;;4979565;28;20031;-81
2021/03/30 05:03:11;;;;;;;13.02;6.18;;;3.20;32.10;;;;;;4997251;28;20077;-82
2021/03/30 05:05:40;;;;;;;12.63;6.13;;;3.20;32.20;;;;;;4997210;28;20026;-81
2021/03/30 05:08:06;;;;;;;12.15;5.78;;;3.20;32.30;;;;;;4996908;28;20478;-81
2021/03/30 05:10:32;;;;;;;10.80;5.47;;;3.20;32.30;;;;;;4979447;28;20061;-81
2021/03/30 05:12:57;;;;;;;13.50;5.93;;;3.20;32.30;;;;;;4996583;28;20027;-81
2021/03/30 05:15:23;;;;;;;12.50;5.70;;;3.20;32.40;;;;;;4996712;28;20437;-80
2021/03/30 05:17:48;;;;;;;12.40;5.95;;;3.20;32.50;;;;;;4979455;28;20105;-80
2021/03/30 05:20:14;;;;;;;11.43;5.22;;;3.30;32.70;;;;;;4996586;28;20059;-83
2021/03/30 05:22:40;;;;;;;12.50;6.18;;;3.30;32.80;;;;;;4979641;28;20374;-81
2021/03/30 05:25:07;;;;;;;14.65;6.28;;;3.40;32.90;;;;;;4979456;28;20027;-82
2021/03/30 05:27:36;;;;;;;11.57;5.85;;;3.40;33.00;;;;;;4995678;28;20029;-84
2021/03/30 05:30:08;;;;;;;13.35;6.07;;;3.50;33.10;;;;;;4996877;28;20030;-82
2021/03/30 05:32:33;;;;;;;14.75;5.63;;;3.50;33.10;;;;;;4996697;28;20022;-79
2021/03/30 05:34:59;;;;;;;11.73;6.00;;;3.60;33.70;;;;;;4997201;28;20037;-88
2021/03/30 05:37:25;;;;;;;13.02;5.68;;;3.60;33.10;;;;;;4979257;28;20089;-88
2021/03/30 05:39:50;;;;;;;12.82;6.10;;;3.60;33.10;;;;;;4979290;28;20026;-84
2021/03/30 05:42:19;;;;;;;14.05;6.07;;;3.80;33.30;;;;;;4978955;28;20023;-85
2021/03/30 05:44:45;;;;;;;15.18;6.28;;;4.20;33.50;;;;;;4979255;28;20022;-84
2021/03/30 05:47:19;;;;;;;15.02;6.07;;;4.00;33.50;;;;;;4995230;28;20083;-83
2021/03/30 05:49:45;;;;;;;13.68;6.18;;;4.20;34.20;;;;;;4994299;28;20025;-83
2021/03/30 05:52:31;;;;;;;11.63;6.07;;;4.00;33.60;;;;;;5015717;28;20045;-89
2021/03/30 05:55:04;;;;;;;11.63;6.00;;;3.80;33.70;;;;;;5008219;28;20091;-85
2021/03/30 05:57:30;;;;;;;12.95;5.95;;;4.30;33.90;;;;;;5021509;28;20037;-86
2021/03/30 05:59:57;;;;;;;11.93;6.25;;;4.10;33.80;;;;;;5019046;28;20069;-85
2021/03/30 06:02:27;;;;;;;13.15;5.90;;;4.20;33.90;;;;;;4998643;28;20034;-85
2021/03/30 06:04:55;;;;;;;13.15;6.15;;;4.20;33.90;;;;;;5015958;28;20026;-85
2021/03/30 06:07:23;;;;;;;13.07;5.93;;;4.40;34.10;;;;;;5014262;28;20030;-87
2021/03/30 06:09:49;;;;;;;16.10;6.85;;;4.10;34.10;;;;;;4993656;28;20026;-85
2021/03/30 06:12:17;;;;;;;13.30;5.38;;;4.30;34.00;;;;;;5014539;28;20033;-86
2021/03/30 06:14:45;;;;;;;12.57;5.75;;;4.20;34.20;;;;;;5009099;28;20025;-85
2021/03/30 06:17:15;;;;;;;14.52;5.80;;;3.90;33.90;;;;;;5014940;28;20025;-90
2021/03/30 06:19:52;;;;;;;13.68;5.45;;;4.30;34.20;;;;;;4992704;28;20037;-89
2021/03/30 06:26:28;;;;;;;11.65;5.07;;;4.40;34.50;;;;;;4950034;29;20074;-87
2021/03/30 06:31:51;;;;;;;16.02;5.53;;;4.60;34.60;;;;;;4941544;29;20032;-87
2021/03/30 06:34:27;;;;;;;11.10;5.30;;;4.60;34.60;;;;;;4954587;28;20134;-88
2021/03/30 06:36:54;;;;;;;15.25;6.22;;;5.30;35.20;;;;;;4970691;28;20038;-90
2021/03/30 06:39:36;;;;;;;12.43;5.55;;;5.10;35.00;;;;;;5013475;28;20068;-85
2021/03/30 06:44:34;;;;;;;12.60;5.53;;;5.10;34.90;;;;;;5016433;28;20022;-88
2021/03/30 06:47:17;;;;;;;10.80;4.65;;;5.20;35.30;;;;;;4998073;28;20121;-81
2021/03/30 06:50:03;;;;;;;15.48;4.93;;;5.50;35.50;;;;;;5014992;28;20053;-91
2021/03/30 06:52:38;;;;;;;12.02;4.70;;;5.60;35.50;;;;;;5014539;28;20124;-91
2021/03/30 06:55:09;;;;;;;11.15;4.80;;;5.90;35.70;;;;;;5014595;28;20029;-89
2021/03/30 06:57:47;;;;;;;11.30;5.22;;;5.80;35.50;;;;;;5014316;28;20018;-88
2021/03/30 07:00:14;;;;;;;12.45;5.45;;;6.40;35.80;;;;;;5013468;28;20121;-89
2021/03/30 07:02:47;;;;;;;11.32;4.65;;;6.10;35.60;;;;;;5014247;28;20075;-89
2021/03/30 07:05:26;;;;;;;11.68;4.82;;;6.20;35.50;;;;;;5014038;28;20381;-90
2021/03/30 07:07:56;;;;;;;12.52;4.72;;;6.30;35.80;;;;;;5013778;28;20026;-90
2021/03/30 07:10:23;;;;;;;12.32;5.07;;;6.80;36.00;;;;;;5013776;28;20405;-82
2021/03/30 07:12:50;;;;;;;12.77;4.97;;;6.50;35.80;;;;;;5014554;28;20022;-84
2021/03/30 07:15:20;;;;;;;12.35;5.07;;;7.00;36.10;;;;;;5013200;28;20026;-85
2021/03/30 07:18:00;;;;;;;15.60;5.90;;;6.60;35.80;;;;;;5013329;28;20022;-87
2021/03/30 07:20:26;;;;;;;12.90;5.75;;;6.90;36.10;;;;;;5013322;28;20057;-87
2021/03/30 07:22:54;;;;;;;17.23;5.82;;;7.00;36.20;;;;;;5013108;28;20351;-88
2021/03/30 07:25:33;;;;;;;13.50;4.97;;;7.50;36.60;;;;;;5013297;28;20041;-89
2021/03/30 07:28:24;;;;;;;;;;;;;;;;;;;;;
2021/03/30 07:31:03;;;;;;;12.07;4.75;;;7.70;36.60;;;;;;5033884;28;20090;-86
2021/03/30 07:37:31;;;;;;;12.13;5.38;;;7.60;36.60;;;;;;5036935;28;20186;-84
2021/03/30 07:40:06;;;;;;;9.38;4.13;;;7.80;36.70;;;;;;5006355;28;20033;-91
2021/03/30 07:45:40;;;;;;;11.40;4.63;;;8.10;36.90;;;;;;5034636;28;20493;-93
2021/03/30 07:48:27;;;;;;;9.93;4.30;;;8.60;37.30;;;;;;5017203;28;20021;-93
2021/03/30 07:51:12;;;;;;;12.63;4.07;;;8.50;37.20;;;;;;5002921;28;20048;-94
2021/03/30 07:54:46;;;;;;;;;;;;;;;;;;;;;
2021/03/30 07:57:27;;;;;;;11.48;4.43;;;9.00;37.40;;;;;;4954017;29;20042;-92
2021/03/30 07:59:53;;;;;;;9.52;4.45;;;9.10;37.10;;;;;;5014571;28;20029;-84
2021/03/30 08:02:53;;;;;;;11.98;5.18;;;9.40;37.20;;;;;;5034293;28;20028;-90
2021/03/30 08:12:16;;;;;;;10.13;5.15;;;9.50;37.40;;;;;;5031068;28;20374;-88
2021/03/30 08:14:42;;;;;;;9.32;4.40;;;9.80;37.60;;;;;;4995383;28;20030;-89
2021/03/30 08:17:13;;;;;;;10.82;4.30;;;10.20;37.70;;;;;;4980155;28;20034;-87
2021/03/30 08:20:04;;;;;;;11.18;5.45;;;10.20;38.10;;;;;;5018635;28;20029;-87
2021/03/30 08:22:59;;;;;;;11.43;4.55;;;10.40;37.90;;;;;;5035540;28;20090;-88
2021/03/30 08:25:25;;;;;;;9.43;3.65;;;10.70;38.00;;;;;;5053229;28;20021;-86
2021/03/30 08:27:51;;;;;;;9.90;4.25;;;10.80;38.10;;;;;;5035514;28;20044;-87
2021/03/30 08:30:20;;;;;;;10.40;4.30;;;11.00;38.00;;;;;;5035153;28;20037;-86
2021/03/30 08:32:48;;;;;;;11.40;4.13;;;11.20;38.20;;;;;;5034459;28;20033;-86
2021/03/30 08:35:39;;;;;;;27.35;6.38;;;11.40;38.50;;;;;;5033396;28;20021;-87
2021/03/30 08:38:05;;;;;;;8.75;3.65;;;11.70;38.40;;;;;;5037919;28;20017;-89
2021/03/30 08:40:34;;;;;;;9.68;3.70;;;12.00;38.40;;;;;;5039299;28;20026;-89
2021/03/30 08:43:01;;;;;;;12.18;4.15;;;12.40;38.70;;;;;;5016139;28;20104;-90
2021/03/30 08:45:26;;;;;;;9.40;4.07;;;12.30;38.30;;;;;;5015408;28;20075;-88
2021/03/30 08:51:22;;;;;;;14.70;4.20;;;12.50;38.30;;;;;;5025027;28;20029;-89
2021/03/30 08:53:48;;;;;;;11.68;4.00;;;12.70;38.50;;;;;;4998975;28;20041;-85
2021/03/30 08:56:16;;;;;;;11.20;4.10;;;12.90;38.60;;;;;;5033090;28;20026;-86
2021/03/30 08:58:49;;;;;;;11.52;4.15;;;13.30;39.00;;;;;;5015402;28;20060;-86
2021/03/30 09:01:15;;;;;;;9.20;4.07;;;13.30;38.90;;;;;;5015083;28;20469;-86
2021/03/30 09:03:53;;;;;;;10.55;4.15;;;13.50;39.70;;;;;;5035524;28;20040;-90
2021/03/30 09:06:39;;;;;;;12.23;4.28;;;13.70;39.00;;;;;;5024050;28;20025;-84
2021/03/30 09:09:23;;;;;;;11.15;3.95;;;14.00;38.50;;;;;;5036364;28;20429;-92
2021/03/30 09:11:50;;;;;;;10.88;4.30;;;14.00;38.20;;;;;;5036597;28;20057;-92
2021/03/30 09:14:21;;;;;;;11.48;4.22;;;13.90;38.10;;;;;;5002903;28;20034;-88
2021/03/30 09:16:51;;;;;;;11.95;4.32;;;13.90;38.60;;;;;;5019012;28;20060;-85
2021/03/30 09:19:32;;;;;;;15.85;5.53;;;13.90;38.90;;;;;;5036432;28;20022;-85
2021/03/30 09:22:06;;;;;;;9.93;3.95;;;14.00;39.40;;;;;;5033557;28;20374;-83
2021/03/30 09:24:55;;;;;;;9.52;4.15;;;14.10;39.60;;;;;;5025427;28;20076;-80
2021/03/30 09:27:28;;;;;;;10.18;3.75;;;14.20;39.90;;;;;;5016414;28;20026;-84
2021/03/30 09:29:56;;;;;;;11.38;3.65;;;14.40;40.40;;;;;;5020394;28;20053;-90
2021/03/30 09:32:25;;;;;;;9.98;3.55;;;14.60;40.70;;;;;;5019116;28;20022;-91
2021/03/30 09:34:50;;;;;;;11.52;3.47;;;14.70;40.90;;;;;;5017957;28;20037;-88
2021/03/30 09:37:17;;;;;;;7.85;3.17;;;14.80;41.10;;;;;;4999280;28;20021;-86
2021/03/30 09:39:44;;;;;;;8.10;3.22;;;15.00;41.70;;;;;;5016699;28;20135;-91
2021/03/30 09:42:11;;;;;;;6.65;2.72;;;15.20;41.70;;;;;;5001179;28;20029;-89
2021/03/30 09:44:44;;;;;;;6.88;2.53;;;15.30;42.00;;;;;;5001309;28;20168;-89
2021/03/30 09:47:14;;;;;;;7.63;2.72;;;15.50;42.40;;;;;;5015368;28;20473;-90
2021/03/30 09:49:42;;;;;;;6.97;3.00;;;15.70;42.70;;;;;;5002814;28;20025;-90
2021/03/30 09:52:11;;;;;;;10.93;3.15;;;15.80;43.00;;;;;;5018971;28;20033;-91
2021/03/30 09:54:43;;;;;;;6.28;2.50;;;15.90;43.20;;;;;;5002223;28;20425;-91
2021/03/30 09:57:17;;;;;;;6.68;2.65;;;16.00;43.80;;;;;;5035990;28;20026;-90
2021/03/30 09:59:47;;;;;;;8.77;3.10;;;16.20;44.20;;;;;;5036277;28;20021;-91
2021/03/30 10:02:18;;;;;;;9.70;3.50;;;16.40;44.80;;;;;;5018473;28;20393;-90
2021/03/30 10:05:05;;;;;;;10.13;3.65;;;16.60;45.30;;;;;;5002498;28;20404;-91
2021/03/30 10:07:35;;;;;;;9.02;2.70;;;16.70;45.80;;;;;;5018892;28;20026;-91
2021/03/30 10:10:12;;;;;;;7.95;2.85;;;16.90;46.40;;;;;;5019115;28;20017;-92
2021/03/30 10:13:00;;;;;;;7.10;2.42;;;17.10;47.10;;;;;;5019003;28;20025;-92
2021/03/30 10:15:37;;;;;;;7.63;2.58;;;17.30;47.60;;;;;;5002679;28;20116;-92
2021/03/30 10:18:10;;;;;;;6.90;2.75;;;17.50;48.30;;;;;;5019564;28;20030;-91
2021/03/30 10:20:50;;;;;;;9.32;2.90;;;17.70;48.90;;;;;;5036088;28;20027;-91
2021/03/30 10:23:25;;;;;;;9.00;2.90;;;17.90;49.60;;;;;;5018620;28;20120;-91
2021/03/30 10:25:52;;;;;;;10.00;3.13;;;18.10;50.70;;;;;;5018841;28;20487;-92
2021/03/30 10:28:31;;;;;;;10.10;3.03;;;18.20;50.70;;;;;;5014970;28;20042;-91
2021/03/30 10:31:10;;;;;;;8.80;2.80;;;18.50;51.90;;;;;;5011397;28;20030;-91
2021/03/30 10:33:45;;;;;;;8.10;2.88;;;18.70;51.90;;;;;;5015028;28;20021;-91
2021/03/30 10:36:14;;;;;;;9.15;3.00;;;18.80;52.70;;;;;;5016263;28;20025;-92
2021/03/30 10:39:24;;;;;;;6.97;2.83;;;19.00;53.10;;;;;;4993706;28;20402;-91
2021/03/30 10:42:09;;;;;;;8.93;2.97;;;19.30;54.10;;;;;;5004740;28;20512;-92
2021/03/30 10:44:48;;;;;;;6.82;2.95;;;19.60;54.80;;;;;;5015915;28;20073;-92
2021/03/30 10:47:21;;;;;;;6.97;2.80;;;19.90;55.50;;;;;;4999409;28;20105;-89
2021/03/30 10:49:49;;;;;;;6.85;2.75;;;20.10;56.30;;;;;;4977889;28;20062;-88
2021/03/30 10:52:21;;;;;;;7.57;2.72;;;20.50;57.20;;;;;;4977621;28;20034;-85
2021/03/30 10:54:49;;;;;;;6.43;2.72;;;20.80;57.80;;;;;;4995050;28;20018;-86
2021/03/30 10:57:16;;;;;;;7.80;2.70;;;21.20;58.60;;;;;;4977381;28;20487;-86
2021/03/30 10:59:43;;;;;;;10.90;3.13;;;21.50;59.30;;;;;;4994952;28;20037;-84
2021/03/30 11:02:11;;;;;;;9.35;2.92;;;21.80;60.30;;;;;;4994884;28;20033;-86
2021/03/30 11:04:38;;;;;;;6.38;2.60;;;22.10;61.60;;;;;;4994687;28;20117;-86
2021/03/30 11:07:05;;;;;;;6.75;3.00;;;22.50;62.50;;;;;;4994757;28;20018;-87
2021/03/30 11:09:32;;;;;;;5.47;2.47;;;22.90;63.40;;;;;;4994746;28;20415;-90
2021/03/30 11:11:57;;;;;;;7.82;2.50;;;23.20;63.60;;;;;;4995005;28;20022;-86
2021/03/30 11:14:23;;;;;;;6.68;2.63;;;23.60;64.00;;;;;;4995600;28;20022;-86
2021/03/30 11:16:50;;;;;;;7.88;2.60;;;24.00;64.40;;;;;;4979041;28;20034;-86
2021/03/30 11:19:17;;;;;;;6.55;2.58;;;24.40;65.00;;;;;;5000407;28;20042;-86
2021/03/30 11:21:43;;;;;;;6.10;2.45;;;24.70;64.70;;;;;;4982406;28;20102;-86
2021/03/30 11:24:17;;;;;;;6.22;2.72;;;25.10;65.80;;;;;;4994940;28;20457;-87
2021/03/30 11:26:46;;;;;;;;;;;25.40;66.20;;;;;;4978795;28;20085;-87
2021/03/30 11:29:18;;;;;;;6.53;2.35;;;25.80;66.50;;;;;;4977473;28;19932;-86
2021/03/30 11:37:18;;;;;;;6.88;2.40;;;26.70;67.40;;;;;;4994550;28;20032;-86
2021/03/30 11:39:45;;;;;;;7.10;2.88;;;26.90;67.80;;;;;;4994329;28;20360;-87
2021/03/30 11:42:11;;;;;;;7.30;2.60;;;27.40;69.10;;;;;;4994172;28;20030;-86
2021/03/30 11:44:37;;;;;;;6.88;2.67;;;27.90;69.00;;;;;;4994021;28;20479;-86
2021/03/30 11:47:03;;;;;;;5.07;2.00;;;28.30;69.30;;;;;;5002689;28;20109;-86
2021/03/30 11:49:31;;;;;;;4.55;2.17;;;28.50;68.00;;;;;;5013771;28;20398;-87
2021/03/30 11:51:57;;;;;;;6.70;2.55;;;28.70;68.50;;;;;;5013877;28;20057;-86
2021/03/30 11:54:23;;;;;;;4.30;2.10;;;28.90;68.20;;;;;;5012470;28;20061;-88
2021/03/30 11:56:49;;;;;;;4.95;2.30;;;29.20;69.10;;;;;;5013787;28;20026;-86
2021/03/30 11:59:15;;;;;;;4.47;2.13;;;29.50;69.30;;;;;;5013611;28;20515;-88
2021/03/30 12:01:41;;;;;;;6.40;2.53;;;29.80;69.00;;;;;;5013762;28;20057;-87
2021/03/30 12:04:07;;;;;;;4.68;2.15;;;30.00;69.00;;;;;;5013369;28;20038;-88
2021/03/30 12:06:33;;;;;;;5.32;2.20;;;30.30;69.70;;;;;;5013675;28;20394;-90
2021/03/30 12:09:00;;;;;;;5.70;2.33;;;30.60;69.50;;;;;;5009139;28;20029;-90
2021/03/30 12:11:27;;;;;;;4.40;2.25;;;31.10;70.10;;;;;;4980099;28;20034;-85
2021/03/30 12:13:53;;;;;;;5.32;2.28;;;31.40;70.00;;;;;;5013472;28;20022;-86
2021/03/30 12:16:19;;;;;;;5.20;2.30;;;31.80;70.00;;;;;;5013798;28;20398;-83
2021/03/30 12:18:44;;;;;;;7.63;2.60;;;32.10;70.20;;;;;;5013719;28;20056;-83
2021/03/30 12:21:10;;;;;;;6.53;2.50;;;32.50;70.00;;;;;;5013938;28;20026;-84
2021/03/30 12:23:36;;;;;;;4.53;2.10;;;32.90;70.70;;;;;;5013608;28;20064;-84
2021/03/30 12:26:02;;;;;;;7.13;2.20;;;33.10;68.60;;;;;;5013697;28;20060;-86
2021/03/30 12:28:27;;;;;;;4.68;2.22;;;33.30;69.60;;;;;;5013437;28;20042;-86
2021/03/30 12:30:53;;;;;;;5.63;2.50;;;33.50;68.40;;;;;;5007862;28;20080;-86
2021/03/30 12:33:19;;;;;;;5.70;2.25;;;33.70;69.30;;;;;;5012342;28;20033;-86
2021/03/30 12:35:45;;;;;;;6.15;2.17;;;33.90;69.50;;;;;;5013342;28;20061;-86
2021/03/30 12:38:11;;;;;;;5.35;2.25;;;34.40;70.30;;;;;;5015262;28;20086;-86
2021/03/30 12:40:37;;;;;;;11.80;2.47;;;34.80;69.70;;;;;;5009431;28;20077;-88
2021/03/30 12:43:04;;;;;;;16.00;3.42;;;35.00;69.60;;;;;;5015905;28;20490;-90
2021/03/30 12:45:33;;;;;;;22.70;3.67;;;35.30;69.30;;;;;;4990590;28;20037;-90
2021/03/30 12:48:00;;;;;;;4.20;2.00;;;35.70;70.00;;;;;;4998289;28;20018;-92
2021/03/30 12:50:27;;;;;;;4.38;2.20;;;36.20;70.70;;;;;;4980007;28;20030;-87
2021/03/30 12:52:53;;;;;;;5.78;2.38;;;36.40;68.50;;;;;;4980144;28;20030;-90
2021/03/30 12:55:19;;;;;;;3.78;2.20;;;36.50;68.40;;;;;;4997689;28;20041;-88
2021/03/30 12:57:45;;;;;;;5.00;2.20;;;36.80;70.50;;;;;;4979990;28;20037;-89
2021/03/30 13:00:12;;;;;;;6.13;2.15;;;37.40;70.60;;;;;;4979730;28;20117;-89
2021/03/30 13:02:38;;;;;;;3.90;2.05;;;37.60;69.10;;;;;;4979776;28;20118;-90
2021/03/30 13:05:04;;;;;;;4.32;2.03;;;37.80;69.00;;;;;;4979718;28;20121;-88
2021/03/30 13:07:30;;;;;;;5.03;2.40;;;37.80;68.10;;;;;;4997063;28;20501;-90
2021/03/30 13:09:56;;;;;;;6.40;2.40;;;37.90;68.60;;;;;;4979809;28;20026;-80
2021/03/30 13:12:22;;;;;;;5.38;2.30;;;38.20;70.20;;;;;;4996913;28;20442;-82
2021/03/30 13:14:48;;;;;;;4.57;2.08;;;38.90;70.20;;;;;;4997039;28;20407;-83
2021/03/30 13:17:14;;;;;;;4.45;2.15;;;39.40;71.20;;;;;;4997394;28;20042;-85
2021/03/30 13:19:39;;;;;;;4.22;2.10;;;39.90;70.90;;;;;;4996896;28;20038;-85
2021/03/30 13:22:06;;;;;;;3.25;2.00;;;40.50;71.10;;;;;;4979591;28;20025;-86
2021/03/30 13:24:38;;;;;;;4.88;2.20;;;41.00;70.70;;;;;;4996959;28;20038;-87
2021/03/30 13:27:07;;;;;;;4.78;2.38;;;41.40;68.30;;;;;;4996748;28;20107;-87
2021/03/30 13:29:38;;;;;;;11.15;2.78;;;41.70;69.00;;;;;;4996592;28;20100;-84
2021/03/30 13:32:10;;;;;;;5.90;2.90;;;42.20;69.00;;;;;;4996710;28;20027;-88
2021/03/30 13:34:37;;;;;;;7.47;2.13;;;42.40;66.90;;;;;;4996838;28;20360;-88